• Join FlightAware (Why Join?)
  • Login
  • US Flag 
11:01PM EDT


 

Airport Tracker/Info


-or-


 

Live Flight TrackerFlight Track Log ✈ N76AD ✈ 03-May-2013 ✈ KALB - KFRG

Flight Track Log - Related Links

Times and Time Zones

All times are in EDT time to prevent confusion due to time zone crossing. See the N76AD flight status page for this flight to view local times or setup timezone preferences in your user account.

Time Position Orientation Groundspeed Altitude Reporting Facility
EDT Latitude Longitude Course Direction KTS MPH feet Rate Location/Type
08:50PM 42.7403 -73.8083 196° South 68 78 900  Level Boston Center
08:51PM 42.7192 -73.8164 196° South 73 84 1,800 720 Climbing Boston Center
08:52PM 42.6986 -73.8103 168° South 75 86 2,500 720 Climbing Boston Center
08:53PM 42.6756 -73.8042 169° South 82 94 3,300 660 Climbing Boston Center
08:54PM 42.6528 -73.8064 184° South 87 100 3,900 540 Climbing Boston Center
08:55PM 42.6297 -73.8058 179° South 88 101 4,500 540 Climbing Boston Center
08:56PM 42.6047 -73.8053 179° South 91 105 5,100 540 Climbing Boston Center
08:57PM 42.5797 -73.8133 193° South 95 109 5,600 480 Climbing Boston Center
08:58PM 42.5528 -73.8069 170° South 98 113 6,100 480 Climbing Boston Center
08:59PM 42.5256 -73.8064 179° South 101 116 6,600 420 Climbing Boston Center
09:00PM 42.4922 -73.8086 183° South 101 116 7,100 180 Climbing Boston Center
09:02PM 42.4503 -73.8161 188° South 119 137 7,100  Level Boston Center
09:03PM 42.4192 -73.8125 175° South 114 131 7,100 -60 Level Boston Center
09:04PM 42.3881 -73.8147 183° South 110 127 7,000 -60 Descending Boston Center
09:05PM 42.3544 -73.8139 179° South 105 121 7,000  Level Boston Center
09:06PM 42.3192 -73.8103 176° South 107 123 7,000  Level Boston Center
09:07PM 42.2878 -73.8208 194° South 107 123 7,100  Climbing Boston Center
09:08PM 42.2564 -73.8231 183° South 107 123 7,100 -60 Level Boston Center
09:09PM 42.2275 -73.8194 175° South 107 123 7,000 -60 Descending Boston Center
09:10PM 42.2067 -73.7967 141° Southeast 107 123 7,000  Level Boston Center
09:11PM 42.1800 -73.7708 144° Southeast 107 123 7,000  Level Boston Center
09:12PM 42.1572 -73.7564 155° Southeast 101 116 7,100  Climbing Boston Center
09:13PM 42.1261 -73.7389 157° South 101 116 7,100  Level Boston Center
09:14PM 42.0992 -73.7356 175° South 107 123 7,100  Level Boston Center
09:15PM 42.0636 -73.7347 179° South 107 123 7,100  Level Boston Center
09:16PM 42.0389 -73.7258 165° South 112 129 7,100 -60 Level Boston Center
09:17PM 42.0078 -73.7086 158° South 107 123 7,000 -60 Descending Boston Center
09:18PM 41.9828 -73.6969 161° South 107 123 7,000  Level Boston Center
09:19PM 41.9539 -73.6794 156° South 107 123 7,000  Level Boston Center
09:20PM 41.9289 -73.6678 161° South 107 123 7,000  Level Boston Center
09:21PM 41.8978 -73.6561 164° South 107 123 7,000  Level Boston Center
09:22PM 41.8708 -73.6472 166° South 107 123 7,000  Level Boston Center
09:23PM 41.8397 -73.6328 161° South 107 123 7,000  Level Boston Center
09:24PM 41.8128 -73.6239 166° South 107 123 7,000  Level Boston Center
09:25PM 41.7836 -73.6067 156° South 107 123 7,000 -60 Level Boston Center
09:26PM 41.7567 -73.6006 170° South 107 123 6,900 -300 Descending Boston Center
09:27PM 41.7256 -73.5917 168° South 107 123 6,500 -480 Descending Boston Center
09:28PM 41.7006 -73.5828 165° South 107 123 6,000 -240 Descending Boston Center
09:29PM 41.6694 -73.5600 151° Southeast 107 123 6,000  Level Boston Center
09:31PM 41.6167 -73.5333 159° South 107 123 6,100  Climbing New York TRACON
09:32PM 41.5833 -73.5167 159° South 109 125 6,100  Level New York TRACON
09:33PM 41.5500 -73.5167 180° South 111 128 6,100  Level New York TRACON
09:34PM 41.5333 -73.5000 143° Southeast 107 123 6,100  Level New York TRACON
09:35PM 41.5000 -73.4833 159° South 110 127 6,100  Level New York TRACON
09:36PM 41.4667 -73.4667 159° South 103 119 6,100  Level New York TRACON
09:37PM 41.4500 -73.4667 180° South 106 122 6,100 -60 Level New York TRACON
09:38PM 41.4167 -73.4333 143° Southeast 100 115 6,000  Descending New York TRACON
09:39PM 41.4000 -73.4167 143° Southeast 99 114 6,100 -60 Climbing New York TRACON
09:40PM 41.4000 -73.3833 90° East 95 109 5,900 -300 Descending New York TRACON
09:41PM 41.3833 -73.3500 124° Southeast 86 99 5,600 -300 Descending New York TRACON
09:42PM 41.3667 -73.3333 143° Southeast 89 102 5,300 -300 Descending New York TRACON
09:43PM 41.3333 -73.3000 143° Southeast 97 112 5,000 -300 Descending New York TRACON
09:44PM 41.3167 -73.3000 180° South 104 120 4,700 -240 Descending New York TRACON
09:45PM 41.2833 -73.3000 180° South 111 128 4,600 -180 Descending New York TRACON
09:46PM 41.2500 -73.3000 180° South 111 128 4,400 -240 Descending New York TRACON
09:47PM 41.2333 -73.3167 217° Southwest 111 128 4,200 -240 Descending New York TRACON
09:48PM 41.2000 -73.3333 201° Southwest 110 127 4,000 -240 Descending New York TRACON
09:49PM 41.1667 -73.3333 180° South 102 117 3,800 -300 Descending New York TRACON
09:50PM 41.1333 -73.3167 159° South 104 120 3,400 -300 Descending New York TRACON
09:51PM 41.1167 -73.3167 180° South 103 119 3,200 -180 Descending New York TRACON
09:52PM 41.0833 -73.3000 159° South 106 122 3,100 -60 Descending New York TRACON
09:53PM 41.0500 -73.3000 180° South 118 136 3,100 -60 Level New York TRACON
09:54PM 41.0167 -73.3167 201° Southwest 117 135 3,000  Descending New York TRACON
09:55PM 41.0000 -73.3167 180° South 116 133 3,100  Climbing New York TRACON
09:56PM 40.9667 -73.3500 217° Southwest 128 147 3,000 -120 Descending New York TRACON
09:57PM 40.9500 -73.3833 237° Southwest 111 128 2,900 -240 Descending New York TRACON
09:58PM 40.9167 -73.4000 201° Southwest 109 125 2,600 -300 Descending New York TRACON
09:59PM 40.9000 -73.4167 217° Southwest 105 121 2,300 -300 Descending New York TRACON
10:00PM 40.8667 -73.4500 217° Southwest 110 127 2,000 -180 Descending New York TRACON
10:01PM 40.8667 -73.4833 270° West 100 115 2,000  Level New York TRACON
10:02PM 40.8500 -73.5167 237° Southwest 99 114 2,000  Level New York TRACON
10:03PM 40.8167 -73.5333 201° Southwest 105 121 2,000  Level New York TRACON
10:04PM 40.8000 -73.5167 143° Southeast 106 122 2,000 -180 Level New York TRACON
10:05PM 40.7833 -73.4833 123° Southeast 90 104 1,700 -420 Descending New York TRACON
10:06PM 40.7667 -73.4667 143° Southeast 70 81 1,200 -480 Descending New York TRACON
10:07PM 40.7500 -73.4500 143° Southeast 74 85 800 -420 Descending New York TRACON